Corydon, Indiana
Current Conditions -  °F | °C
As of 3:56 PM on Tuesday 25 Nov 2014 (Local Time) from KSDF Reporting Station
Broken Clouds Broken Clouds  
Wind Chill: 41°   Ceiling: 25000
Heat Index: 45°   Visibility: 10mi
Dew Point: 26°   Wind: 8mph
Humidity: 48%   Direction: 280°W
Pressure: 30.13"   Gusts: NA
Location:  38.21°N, 86.12°W
Report Text: KSDF 252056Z 28007KT 10SM FEW070 FEW210 BKN250 BKN300 07/M03 A3013 RMK AO2 SLP203 T00721033 55007
Loading
Personal Weather Stations






























Interactive Weather Map New forecast layout! Learn more

10-Day Weather Forecast

Advertisements
Track Severe Weather on mobile